createdAt,value
2022-11-06T00:00:34.274Z,3.60
2022-11-06T00:03:20.992Z,3.80
2022-11-06T00:06:06.485Z,3.93
2022-11-06T00:08:36.541Z,3.90
2022-11-06T00:11:11.188Z,3.90
2022-11-06T00:13:41.513Z,3.50
2022-11-06T00:16:11.707Z,3.97
2022-11-06T00:18:41.076Z,5.27
2022-11-06T00:21:10.133Z,4.17
2022-11-06T00:23:38.157Z,3.77
2022-11-06T00:26:08.331Z,3.37
2022-11-06T00:28:36.586Z,3.63
2022-11-06T00:31:07.660Z,3.47
2022-11-06T00:33:36.291Z,3.67
2022-11-06T00:36:05.142Z,3.97
2022-11-06T00:38:33.451Z,4.27
2022-11-06T00:41:04.366Z,4.10
2022-11-06T00:43:32.995Z,3.67
2022-11-06T00:46:02.964Z,3.40
2022-11-06T00:48:32.471Z,3.70
2022-11-06T00:51:03.548Z,4.10
2022-11-06T00:53:31.666Z,3.70
2022-11-06T00:56:05.970Z,4.43
2022-11-06T00:58:34.223Z,3.77
2022-11-06T01:01:08.496Z,4.13
2022-11-06T01:03:38.290Z,3.80
2022-11-06T01:06:08.372Z,4.23
2022-11-06T01:08:36.620Z,3.83
2022-11-06T01:11:09.925Z,4.50
2022-11-06T01:13:39.639Z,4.00
2022-11-06T01:16:09.403Z,3.80
2022-11-06T01:18:40.313Z,4.30
2022-11-06T01:21:09.818Z,4.13
2022-11-06T01:23:38.010Z,3.80
2022-11-06T01:26:07.883Z,4.07
2022-11-06T01:28:36.542Z,4.40
2022-11-06T01:31:06.125Z,3.77
2022-11-06T01:33:34.288Z,3.53
2022-11-06T01:36:03.642Z,4.07
2022-11-06T01:38:31.678Z,3.80
2022-11-06T01:40:59.690Z,4.30
2022-11-06T01:43:46.638Z,4.30
2022-11-06T01:46:16.063Z,4.07
2022-11-06T01:48:49.102Z,3.77
2022-11-06T01:51:19.073Z,4.47
2022-11-06T01:53:47.389Z,4.07
2022-11-06T01:56:16.540Z,3.90
2022-11-06T01:58:47.920Z,4.10
2022-11-06T02:01:17.136Z,3.83
2022-11-06T02:03:52.747Z,3.70
2022-11-06T02:06:22.913Z,4.00
2022-11-06T02:08:50.902Z,3.90
2022-11-06T02:11:19.074Z,4.40
2022-11-06T02:13:58.858Z,3.77
2022-11-06T02:16:39.954Z,4.03
2022-11-06T02:19:31.460Z,4.30
2022-11-06T02:22:19.331Z,4.30
2022-11-06T02:25:07.447Z,4.03
2022-11-06T02:27:37.255Z,3.77
2022-11-06T02:30:08.413Z,3.80
2022-11-06T02:32:40.993Z,4.00
2022-11-06T02:35:19.206Z,4.40
2022-11-06T02:37:50.543Z,3.53
2022-11-06T02:40:19.882Z,3.93
2022-11-06T02:42:54.350Z,3.43
2022-11-06T02:45:24.506Z,3.80
2022-11-06T02:47:56.034Z,3.73
2022-11-06T02:50:27.985Z,3.63
2022-11-06T02:52:59.770Z,3.93
2022-11-06T02:55:30.508Z,3.73
2022-11-06T02:58:07.707Z,3.80
2022-11-06T03:00:37.152Z,4.20
2022-11-06T03:03:09.574Z,4.10
2022-11-06T03:05:44.417Z,3.87
2022-11-06T03:08:18.838Z,3.77
2022-11-06T03:10:52.019Z,3.77
2022-11-06T03:13:25.295Z,4.10
2022-11-06T03:16:04.987Z,3.30
2022-11-06T03:18:40.209Z,3.70
2022-11-06T03:21:15.134Z,3.73
2022-11-06T03:23:48.585Z,3.73
2022-11-06T03:26:20.584Z,3.57
2022-11-06T03:28:54.357Z,3.70
2022-11-06T03:31:30.445Z,3.57
2022-11-06T03:34:03.024Z,3.50
2022-11-06T03:36:35.305Z,3.53
2022-11-06T03:39:07.429Z,3.67
2022-11-06T03:41:43.061Z,3.60
2022-11-06T03:44:16.350Z,3.20
2022-11-06T03:46:48.479Z,3.87
2022-11-06T03:49:23.610Z,3.73
2022-11-06T03:51:58.038Z,3.33
2022-11-06T03:54:30.536Z,3.20
2022-11-06T03:57:01.710Z,3.90
2022-11-06T03:59:35.167Z,3.60
2022-11-06T04:02:04.142Z,3.80
2022-11-06T04:04:36.559Z,3.67
2022-11-06T04:07:09.344Z,3.80
2022-11-06T04:09:59.029Z,3.20
2022-11-06T04:13:00.628Z,3.20
2022-11-06T04:15:34.503Z,4.27
2022-11-06T04:18:02.590Z,4.10
2022-11-06T04:20:56.386Z,3.60
2022-11-06T04:23:37.687Z,3.53
2022-11-06T04:26:31.776Z,4.23
2022-11-06T04:29:09.172Z,3.57
2022-11-06T04:31:46.398Z,3.50
2022-11-06T04:34:22.568Z,3.70
2022-11-06T04:37:01.336Z,3.77
2022-11-06T04:39:35.692Z,3.47
2022-11-06T04:42:12.614Z,3.10
2022-11-06T04:44:44.870Z,3.37
2022-11-06T04:47:17.952Z,3.20
2022-11-06T04:49:46.853Z,3.53
2022-11-06T04:52:19.207Z,3.67
2022-11-06T04:54:48.079Z,3.70
2022-11-06T04:57:16.307Z,3.50
2022-11-06T04:59:44.419Z,3.40
2022-11-06T05:02:13.996Z,3.57
2022-11-06T05:04:42.133Z,3.33
2022-11-06T05:07:10.738Z,3.00
2022-11-06T05:09:39.068Z,3.57
2022-11-06T05:12:07.497Z,3.20
2022-11-06T05:14:35.494Z,3.60
2022-11-06T05:17:03.637Z,2.97
2022-11-06T05:19:32.968Z,3.20
2022-11-06T05:22:18.497Z,3.53
2022-11-06T05:24:46.478Z,3.30
2022-11-06T05:27:14.427Z,3.53
2022-11-06T05:29:42.927Z,3.97
2022-11-06T05:32:10.925Z,3.70
2022-11-06T05:34:42.346Z,3.30
2022-11-06T05:37:10.260Z,3.07
2022-11-06T05:39:41.862Z,3.20
2022-11-06T05:42:10.314Z,3.50
2022-11-06T05:44:38.788Z,3.10
2022-11-06T05:47:06.766Z,3.07
2022-11-06T05:49:35.079Z,3.10
2022-11-06T05:52:04.584Z,3.20
2022-11-06T05:54:32.526Z,3.23
2022-11-06T05:57:00.610Z,3.30
2022-11-06T05:59:28.667Z,3.10
2022-11-06T06:01:58.532Z,3.33
2022-11-06T06:04:26.724Z,3.37
2022-11-06T06:06:54.693Z,2.83
2022-11-06T06:09:24.027Z,3.10
2022-11-06T06:11:53.221Z,2.77
2022-11-06T06:14:21.592Z,3.27
2022-11-06T06:16:49.707Z,2.97
2022-11-06T06:19:17.766Z,2.83
2022-11-06T06:21:45.861Z,2.77
2022-11-06T06:24:13.921Z,2.67
2022-11-06T06:26:43.647Z,3.17
2022-11-06T06:29:11.720Z,3.00
2022-11-06T06:31:39.760Z,2.73
2022-11-06T06:34:08.759Z,3.17
2022-11-06T06:36:36.746Z,2.93
2022-11-06T06:39:04.931Z,3.40
2022-11-06T06:41:33.319Z,2.67
2022-11-06T06:44:02.660Z,2.47
2022-11-06T06:46:30.590Z,3.00
2022-11-06T06:48:58.757Z,2.67
2022-11-06T06:51:26.744Z,2.87
2022-11-06T06:53:54.703Z,2.73
2022-11-06T06:56:22.878Z,2.70
2022-11-06T06:58:54.074Z,2.50
2022-11-06T07:01:23.890Z,2.90
2022-11-06T07:03:51.962Z,2.20
2022-11-06T07:06:20.471Z,2.67
2022-11-06T07:08:48.742Z,2.90
2022-11-06T07:11:18.167Z,3.03
2022-11-06T07:13:46.182Z,2.10
2022-11-06T07:16:14.351Z,2.83
2022-11-06T07:18:43.706Z,2.90
2022-11-06T07:21:13.719Z,2.40
2022-11-06T07:23:42.089Z,2.60
2022-11-06T07:26:10.082Z,2.63
2022-11-06T07:28:38.019Z,2.60
2022-11-06T07:31:08.243Z,2.50
2022-11-06T07:33:36.906Z,2.40
2022-11-06T07:36:08.023Z,2.50
2022-11-06T07:38:37.089Z,2.50
2022-11-06T07:41:05.963Z,2.23
2022-11-06T07:43:34.371Z,2.90
2022-11-06T07:46:03.613Z,2.30
2022-11-06T07:48:32.486Z,2.30
2022-11-06T07:51:03.065Z,2.10
2022-11-06T07:53:32.600Z,2.63
2022-11-06T07:56:00.962Z,2.80
2022-11-06T07:58:29.415Z,2.10
2022-11-06T08:00:59.214Z,2.57
2022-11-06T08:03:29.987Z,2.10
2022-11-06T08:05:58.429Z,2.50
2022-11-06T08:08:27.023Z,2.07
2022-11-06T08:10:56.380Z,2.20
2022-11-06T08:13:25.977Z,2.27
2022-11-06T08:15:54.115Z,2.20
2022-11-06T08:18:22.072Z,2.13
2022-11-06T08:20:50.077Z,2.00
2022-11-06T08:23:18.257Z,2.50
2022-11-06T08:25:46.336Z,2.17
2022-11-06T08:28:15.866Z,2.38
2022-11-06T08:30:44.119Z,2.10
2022-11-06T08:33:12.437Z,2.00
2022-11-06T08:35:40.493Z,2.20
2022-11-06T08:38:08.590Z,1.87
2022-11-06T08:40:38.770Z,3.00
2022-11-06T08:43:09.137Z,2.20
2022-11-06T08:45:39.676Z,1.90
2022-11-06T08:48:08.787Z,2.50
2022-11-06T08:50:39.051Z,2.20
2022-11-06T08:53:07.638Z,2.38
2022-11-06T08:55:37.035Z,2.37
2022-11-06T08:58:05.968Z,2.33
2022-11-06T09:00:34.227Z,2.05
2022-11-06T09:03:05.736Z,2.58
2022-11-06T09:05:34.183Z,2.33
2022-11-06T09:08:02.129Z,2.30
2022-11-06T09:10:30.249Z,2.38
2022-11-06T09:12:59.593Z,2.17
2022-11-06T09:15:27.738Z,2.17
2022-11-06T09:17:56.275Z,2.08
2022-11-06T09:20:26.987Z,2.28
2022-11-06T09:22:55.553Z,2.28
2022-11-06T09:25:23.646Z,2.38
2022-11-06T09:27:58.739Z,2.47
2022-11-06T09:30:29.468Z,2.05
2022-11-06T09:33:00.493Z,2.10
2022-11-06T09:35:31.683Z,2.28
2022-11-06T09:38:03.366Z,1.83
2022-11-06T09:40:35.448Z,2.20
2022-11-06T09:43:27.318Z,2.67
2022-11-06T09:46:07.446Z,2.10
2022-11-06T09:48:39.594Z,2.15
2022-11-06T09:51:17.939Z,2.42
2022-11-06T09:53:50.629Z,1.88
2022-11-06T09:56:21.844Z,2.58
2022-11-06T09:58:50.619Z,2.13
2022-11-06T10:01:27.055Z,1.92
2022-11-06T10:03:58.577Z,2.13
2022-11-06T10:06:29.786Z,1.98
2022-11-06T10:09:02.460Z,1.70
2022-11-06T10:11:59.441Z,2.08
2022-11-06T10:14:45.989Z,2.20
2022-11-06T10:17:23.420Z,1.90
2022-11-06T10:19:58.102Z,2.10
2022-11-06T10:22:36.289Z,2.20
2022-11-06T10:25:19.404Z,1.98
2022-11-06T10:28:00.209Z,2.00
2022-11-06T10:30:38.795Z,1.70
2022-11-06T10:33:21.395Z,2.00
2022-11-06T10:35:55.161Z,1.52
2022-11-06T10:38:27.130Z,1.95
2022-11-06T10:40:57.135Z,2.08
2022-11-06T10:43:31.859Z,2.03
2022-11-06T10:46:05.658Z,2.00
2022-11-06T10:48:41.544Z,1.45
2022-11-06T10:51:32.297Z,2.00
2022-11-06T10:54:14.660Z,1.60
2022-11-06T10:56:58.775Z,2.13
2022-11-06T10:59:26.938Z,1.85
2022-11-06T11:01:55.562Z,2.03
2022-11-06T11:04:23.586Z,2.03
2022-11-06T11:06:52.224Z,1.90
2022-11-06T11:09:33.592Z,1.73
2022-11-06T11:12:02.669Z,1.60
2022-11-06T11:14:32.546Z,1.70
2022-11-06T11:17:02.420Z,1.55
2022-11-06T11:19:38.767Z,1.98
2022-11-06T11:22:19.687Z,1.92
2022-11-06T11:25:01.476Z,1.60
2022-11-06T11:27:31.006Z,1.77
2022-11-06T11:29:59.358Z,1.95
2022-11-06T11:32:31.126Z,1.77
2022-11-06T11:35:00.735Z,2.00
2022-11-06T11:37:31.319Z,1.30
2022-11-06T11:40:20.815Z,2.10
2022-11-06T11:42:49.434Z,1.83
2022-11-06T11:45:20.701Z,2.08
2022-11-06T11:47:51.430Z,2.20
2022-11-06T11:50:32.183Z,1.60
2022-11-06T11:53:10.264Z,2.10
2022-11-06T11:55:44.388Z,1.80
2022-11-06T11:58:22.476Z,1.98
2022-11-06T12:00:56.762Z,1.98
2022-11-06T12:03:28.595Z,1.80
2022-11-06T12:06:07.509Z,1.90
2022-11-06T12:08:36.591Z,1.80
2022-11-06T12:11:08.501Z,1.50
2022-11-06T12:13:36.577Z,1.73
2022-11-06T12:16:09.208Z,2.20
2022-11-06T12:18:42.350Z,1.80
2022-11-06T12:21:16.629Z,1.70
2022-11-06T12:23:50.079Z,1.58
2022-11-06T12:26:26.993Z,1.67
2022-11-06T12:29:03.626Z,2.00
2022-11-06T12:31:39.943Z,1.70
2022-11-06T12:34:17.432Z,1.60
2022-11-06T12:37:02.076Z,1.83
2022-11-06T12:39:35.710Z,1.33
2022-11-06T12:42:08.176Z,1.65
2022-11-06T12:44:36.537Z,1.70
2022-11-06T12:47:13.822Z,1.77
2022-11-06T12:49:58.098Z,1.58
2022-11-06T12:52:43.230Z,1.70
2022-11-06T12:55:20.453Z,1.60
2022-11-06T12:58:15.047Z,1.55
2022-11-06T13:00:53.164Z,1.73
2022-11-06T13:03:40.101Z,1.80
2022-11-06T13:06:14.910Z,1.88
2022-11-06T13:08:51.822Z,1.75
2022-11-06T13:11:31.580Z,1.15
2022-11-06T13:14:09.609Z,1.63
2022-11-06T13:16:47.727Z,1.38
2022-11-06T13:19:22.218Z,1.67
2022-11-06T13:22:11.304Z,1.20
2022-11-06T13:24:46.519Z,1.50
2022-11-06T13:27:23.774Z,1.45
2022-11-06T13:29:56.502Z,1.38
2022-11-06T13:32:26.869Z,0.95
2022-11-06T13:34:57.246Z,1.52
2022-11-06T13:37:36.640Z,1.50
2022-11-06T13:40:16.372Z,1.60
2022-11-06T13:42:49.533Z,1.60
2022-11-06T13:45:20.320Z,1.60
2022-11-06T13:48:00.463Z,1.52
2022-11-06T13:50:33.993Z,1.33
2022-11-06T13:53:11.358Z,1.30
2022-11-06T13:55:57.890Z,1.67
2022-11-06T13:58:48.798Z,1.60
2022-11-06T14:01:34.537Z,1.50
2022-11-06T14:04:42.770Z,1.95
2022-11-06T14:07:12.755Z,1.50
2022-11-06T14:09:46.492Z,1.85
2022-11-06T14:12:20.304Z,1.55
2022-11-06T14:14:50.029Z,1.30
2022-11-06T14:17:25.165Z,1.48
2022-11-06T14:20:09.603Z,1.38
2022-11-06T14:22:39.574Z,1.70
2022-11-06T14:25:48.320Z,1.98
2022-11-06T14:28:34.006Z,1.80
2022-11-06T14:31:23.829Z,1.45
2022-11-06T14:34:03.896Z,1.70
2022-11-06T14:36:36.320Z,1.50
2022-11-06T14:39:10.223Z,1.40
2022-11-06T14:41:58.117Z,1.65
2022-11-06T14:44:42.882Z,1.77
2022-11-06T14:47:24.277Z,1.90
2022-11-06T14:49:56.421Z,1.73
2022-11-06T14:52:27.707Z,1.80
2022-11-06T14:55:04.843Z,1.67
2022-11-06T14:57:45.902Z,1.55
2022-11-06T15:00:33.276Z,1.80
2022-11-06T15:03:02.428Z,1.65
2022-11-06T15:05:41.992Z,1.70
2022-11-06T15:08:11.038Z,1.40
2022-11-06T15:10:51.504Z,1.95
2022-11-06T15:13:31.641Z,1.90
2022-11-06T15:16:13.043Z,1.67
2022-11-06T15:18:45.875Z,1.80
2022-11-06T15:21:23.104Z,1.80
2022-11-06T15:24:00.331Z,2.00
2022-11-06T15:26:33.857Z,1.92
2022-11-06T15:29:14.654Z,1.90
2022-11-06T15:31:45.983Z,1.77
2022-11-06T15:34:21.171Z,2.03
2022-11-06T15:36:56.238Z,1.48
2022-11-06T15:39:39.109Z,1.80
2022-11-06T15:42:09.998Z,2.38
2022-11-06T15:44:42.375Z,1.83
2022-11-06T15:47:21.927Z,1.80
2022-11-06T15:49:50.313Z,2.05
2022-11-06T15:52:20.036Z,1.90
2022-11-06T15:54:49.169Z,2.03
2022-11-06T15:57:20.548Z,1.80
2022-11-06T15:59:48.756Z,2.33
2022-11-06T16:02:19.597Z,2.38
2022-11-06T16:04:49.062Z,2.17
2022-11-06T16:07:20.709Z,2.13
2022-11-06T16:09:50.366Z,1.85
2022-11-06T16:12:19.758Z,1.88
2022-11-06T16:14:47.998Z,2.08
2022-11-06T16:17:23.804Z,2.08
2022-11-06T16:19:54.846Z,2.25
2022-11-06T16:22:31.607Z,2.10
2022-11-06T16:25:02.793Z,2.60
2022-11-06T16:27:41.966Z,2.17
2022-11-06T16:30:25.117Z,2.03
2022-11-06T16:32:54.639Z,2.22
2022-11-06T16:35:33.412Z,2.33
2022-11-06T16:38:46.097Z,2.42
2022-11-06T16:41:31.962Z,2.58
2022-11-06T16:44:22.644Z,2.10
2022-11-06T16:47:14.998Z,2.10
2022-11-06T16:49:47.639Z,2.40
2022-11-06T16:52:24.242Z,2.50
2022-11-06T16:54:56.445Z,2.72
2022-11-06T16:57:27.857Z,2.13
2022-11-06T17:00:03.174Z,2.47
2022-11-06T17:02:33.956Z,2.30
2022-11-06T17:05:16.968Z,2.83
2022-11-06T17:07:46.956Z,2.35
2022-11-06T17:10:41.407Z,2.55
2022-11-06T17:13:15.091Z,2.85
2022-11-06T17:15:44.797Z,2.55
2022-11-06T17:18:17.823Z,2.72
2022-11-06T17:20:49.686Z,2.60
2022-11-06T17:23:18.081Z,2.17
2022-11-06T17:25:51.021Z,2.67
2022-11-06T17:28:19.576Z,2.80
2022-11-06T17:30:48.298Z,2.80
2022-11-06T17:33:17.017Z,2.78
2022-11-06T17:35:45.235Z,2.75
2022-11-06T17:38:14.920Z,2.95
2022-11-06T17:40:44.321Z,2.78
2022-11-06T17:43:14.322Z,2.03
2022-11-06T17:45:48.127Z,2.42
2022-11-06T17:48:16.512Z,2.43
2022-11-06T17:51:01.858Z,2.53
2022-11-06T17:53:30.187Z,1.75
2022-11-06T17:55:58.380Z,2.50
2022-11-06T17:58:30.638Z,2.17
2022-11-06T18:01:06.854Z,2.58
2022-11-06T18:03:36.873Z,2.55
2022-11-06T18:06:05.304Z,2.25
2022-11-06T18:08:33.731Z,2.78
2022-11-06T18:11:01.906Z,2.50
2022-11-06T18:13:32.429Z,2.60
2022-11-06T18:16:00.809Z,2.47
2022-11-06T18:18:29.819Z,2.20
2022-11-06T18:20:57.846Z,2.40
2022-11-06T18:23:25.848Z,2.40
2022-11-06T18:25:58.292Z,2.17
2022-11-06T18:28:26.780Z,2.67
2022-11-06T18:30:56.336Z,2.20
2022-11-06T18:33:25.732Z,2.28
2022-11-06T18:35:54.056Z,2.50
2022-11-06T18:38:22.355Z,2.05
2022-11-06T18:40:51.884Z,2.35
2022-11-06T18:43:20.035Z,2.23
2022-11-06T18:45:48.084Z,2.13
2022-11-06T18:48:21.274Z,1.87
2022-11-06T18:50:50.182Z,2.25
2022-11-06T18:53:18.204Z,2.05
2022-11-06T18:55:47.040Z,2.40
2022-11-06T18:58:15.506Z,2.00
2022-11-06T19:00:43.807Z,2.30
2022-11-06T19:03:11.820Z,2.20
2022-11-06T19:05:47.315Z,1.67
2022-11-06T19:08:15.500Z,2.22
2022-11-06T19:10:43.760Z,2.42
2022-11-06T19:13:12.815Z,2.03
2022-11-06T19:15:40.998Z,2.13
2022-11-06T19:18:09.078Z,2.35
2022-11-06T19:20:41.312Z,2.10
2022-11-06T19:23:09.771Z,2.67
2022-11-06T19:25:41.175Z,2.13
2022-11-06T19:28:09.755Z,2.00
2022-11-06T19:30:37.993Z,1.93
2022-11-06T19:33:06.645Z,2.03
2022-11-06T19:35:34.908Z,2.13
2022-11-06T19:38:04.252Z,1.70
2022-11-06T19:40:32.860Z,1.77
2022-11-06T19:43:03.758Z,1.77
2022-11-06T19:45:31.767Z,1.93
2022-11-06T19:48:00.974Z,1.87
2022-11-06T19:50:58.120Z,1.60
2022-11-06T19:53:23.937Z,1.80
2022-11-06T19:55:52.256Z,1.73
2022-11-06T19:58:21.846Z,1.90
2022-11-06T20:00:50.333Z,1.57
2022-11-06T20:03:18.807Z,2.00
2022-11-06T20:05:46.745Z,2.20
2022-11-06T20:08:15.296Z,1.90
2022-11-06T20:10:44.782Z,1.93
2022-11-06T20:13:13.003Z,1.93
2022-11-06T20:15:41.221Z,2.20
2022-11-06T20:18:09.819Z,2.47
2022-11-06T20:20:37.972Z,2.00
2022-11-06T20:23:06.287Z,1.80
2022-11-06T20:25:34.249Z,1.67
2022-11-06T20:28:03.548Z,1.60
2022-11-06T20:30:32.140Z,2.00
2022-11-06T20:33:00.085Z,2.00
2022-11-06T20:35:28.067Z,1.70
2022-11-06T20:37:56.468Z,1.87
2022-11-06T20:40:24.497Z,2.00
2022-11-06T20:42:52.772Z,1.83
2022-11-06T20:45:22.171Z,1.90
2022-11-06T20:47:50.158Z,1.80
2022-11-06T20:50:18.274Z,1.90
2022-11-06T20:52:47.493Z,2.20
2022-11-06T20:55:15.428Z,1.70
2022-11-06T20:57:43.387Z,2.03
2022-11-06T21:00:13.212Z,1.83
2022-11-06T21:02:42.808Z,1.70
2022-11-06T21:05:10.905Z,2.00
2022-11-06T21:07:38.984Z,1.60
2022-11-06T21:10:07.449Z,2.37
2022-11-06T21:12:35.412Z,2.33
2022-11-06T21:15:03.487Z,1.70
2022-11-06T21:17:31.423Z,2.30
2022-11-06T21:20:00.733Z,1.93
2022-11-06T21:22:28.806Z,2.03
2022-11-06T21:24:56.761Z,2.03
2022-11-06T21:27:25.160Z,1.90
2022-11-06T21:29:55.934Z,2.13
2022-11-06T21:32:23.917Z,1.90
2022-11-06T21:34:51.869Z,2.37
2022-11-06T21:37:32.810Z,1.90
2022-11-06T21:40:01.186Z,2.40
2022-11-06T21:42:29.181Z,2.23
2022-11-06T21:44:57.528Z,1.90
2022-11-06T21:47:25.802Z,2.40
2022-11-06T21:49:54.855Z,2.10
2022-11-06T21:52:41.500Z,2.43
2022-11-06T21:55:28.477Z,2.20
2022-11-06T21:57:56.536Z,2.30
2022-11-06T22:00:24.843Z,2.27
2022-11-06T22:02:52.812Z,2.37
2022-11-06T22:05:21.013Z,2.40
2022-11-06T22:07:50.286Z,2.50
2022-11-06T22:10:18.309Z,2.57
2022-11-06T22:12:46.321Z,2.40
2022-11-06T22:15:14.313Z,2.70
2022-11-06T22:17:42.390Z,2.60
2022-11-06T22:20:11.875Z,2.30
2022-11-06T22:22:40.135Z,2.43
2022-11-06T22:25:10.276Z,2.83
2022-11-06T22:27:41.060Z,2.50
2022-11-06T22:30:10.526Z,2.90
2022-11-06T22:32:38.637Z,2.73
2022-11-06T22:35:06.928Z,2.53
2022-11-06T22:37:34.909Z,2.70
2022-11-06T22:40:03.257Z,2.70
2022-11-06T22:42:32.630Z,2.70
2022-11-06T22:45:00.679Z,2.73
2022-11-06T22:47:28.897Z,2.53
2022-11-06T22:49:56.856Z,3.43
2022-11-06T22:52:24.797Z,2.90
2022-11-06T22:54:52.866Z,3.10
2022-11-06T22:57:20.854Z,3.07
2022-11-06T22:59:50.217Z,3.23
2022-11-06T23:02:18.336Z,3.10
2022-11-06T23:04:46.662Z,2.87
2022-11-06T23:07:14.640Z,3.50
2022-11-06T23:09:42.745Z,3.30
2022-11-06T23:12:10.699Z,4.17
2022-11-06T23:14:38.728Z,3.50
2022-11-06T23:17:08.132Z,3.50
2022-11-06T23:19:36.084Z,4.00
2022-11-06T23:22:21.637Z,3.80
2022-11-06T23:24:49.592Z,4.07
2022-11-06T23:27:18.317Z,4.37
2022-11-06T23:29:46.637Z,3.40
2022-11-06T23:32:16.035Z,4.10
2022-11-06T23:34:43.990Z,3.87
2022-11-06T23:37:12.284Z,3.40
2022-11-06T23:39:40.230Z,4.37
2022-11-06T23:42:08.446Z,3.97
2022-11-06T23:44:53.819Z,3.90
2022-11-06T23:47:23.130Z,3.87
2022-11-06T23:49:51.083Z,3.50
2022-11-06T23:52:19.399Z,3.80
2022-11-06T23:54:47.352Z,3.80
2022-11-06T23:57:16.093Z,3.87
2022-11-06T23:59:44.332Z,3.90
